createdAt,value
2017-05-14T00:02:04.365Z,32.17
2017-05-14T00:04:32.916Z,28.48
2017-05-14T00:07:01.418Z,31.55
2017-05-14T00:09:29.931Z,30.50
2017-05-14T00:11:58.497Z,29.67
2017-05-14T00:14:27.004Z,30.83
2017-05-14T00:16:55.508Z,27.42
2017-05-14T00:19:24.051Z,27.12
2017-05-14T00:21:52.551Z,29.27
2017-05-14T00:24:21.053Z,25.63
2017-05-14T00:26:49.632Z,27.90
2017-05-14T00:29:18.148Z,28.53
2017-05-14T00:31:46.659Z,26.75
2017-05-14T00:34:15.216Z,27.85
2017-05-14T00:36:43.739Z,28.75
2017-05-14T00:39:12.253Z,28.53
2017-05-14T00:41:40.806Z,29.65
2017-05-14T00:44:09.322Z,27.97
2017-05-14T00:46:37.841Z,28.08
2017-05-14T00:49:06.390Z,28.58
2017-05-14T00:51:34.928Z,28.62
2017-05-14T00:54:03.432Z,29.08
2017-05-14T00:56:31.986Z,28.48
2017-05-14T00:59:00.504Z,30.87
2017-05-14T01:01:29.024Z,31.68
2017-05-14T01:03:57.739Z,28.50
2017-05-14T01:06:26.247Z,32.38
2017-05-14T01:08:54.767Z,28.45
2017-05-14T01:11:23.316Z,29.62
2017-05-14T01:13:51.844Z,30.68
2017-05-14T01:16:20.345Z,30.85
2017-05-14T01:18:48.910Z,30.28
2017-05-14T01:21:17.429Z,31.18
2017-05-14T01:23:45.952Z,32.38
2017-05-14T01:26:14.509Z,31.43
2017-05-14T01:28:43.021Z,30.57
2017-05-14T01:31:11.538Z,31.58
2017-05-14T01:33:40.119Z,32.95
2017-05-14T01:36:08.648Z,31.27
2017-05-14T01:38:37.214Z,29.82
2017-05-14T01:41:05.777Z,30.00
2017-05-14T01:43:34.292Z,31.42
2017-05-14T01:46:02.814Z,32.02
2017-05-14T01:48:31.395Z,31.07
2017-05-14T01:50:59.907Z,33.73
2017-05-14T01:53:28.417Z,35.03
2017-05-14T01:55:56.982Z,37.58
2017-05-14T01:58:25.500Z,32.73
2017-05-14T02:00:54.012Z,33.87
2017-05-14T02:03:22.563Z,33.50
2017-05-14T02:05:51.071Z,34.08
2017-05-14T02:08:19.582Z,32.37
2017-05-14T02:10:48.133Z,33.75
2017-05-14T02:13:16.640Z,36.13
2017-05-14T02:15:45.164Z,33.85
2017-05-14T02:18:13.725Z,33.53
2017-05-14T02:20:42.235Z,34.12
2017-05-14T02:23:10.749Z,33.38
2017-05-14T02:25:39.332Z,34.40
2017-05-14T02:28:07.852Z,35.40
2017-05-14T02:30:36.379Z,37.32
2017-05-14T02:33:04.939Z,33.22
2017-05-14T02:35:33.454Z,36.67
2017-05-14T02:38:01.967Z,36.25
2017-05-14T02:40:30.528Z,33.38
2017-05-14T02:42:59.047Z,37.78
2017-05-14T02:45:27.561Z,37.02
2017-05-14T02:47:56.116Z,38.37
2017-05-14T02:50:24.634Z,35.65
2017-05-14T02:52:53.152Z,38.85
2017-05-14T02:55:21.708Z,39.12
2017-05-14T02:57:50.237Z,35.80
2017-05-14T03:00:18.764Z,35.22
2017-05-14T03:02:47.326Z,36.87
2017-05-14T03:05:15.836Z,38.98
2017-05-14T03:07:44.351Z,36.87
2017-05-14T03:10:12.918Z,35.37
2017-05-14T03:12:41.443Z,38.92
2017-05-14T03:15:09.962Z,40.02
2017-05-14T03:17:38.506Z,39.70
2017-05-14T03:20:07.020Z,38.17
2017-05-14T03:22:35.542Z,40.10
2017-05-14T03:25:04.108Z,35.63
2017-05-14T03:27:32.617Z,39.88
2017-05-14T03:30:01.129Z,37.28
2017-05-14T03:32:29.855Z,39.65
2017-05-14T03:34:58.371Z,40.42
2017-05-14T03:37:26.884Z,36.93
2017-05-14T03:39:55.440Z,37.43
2017-05-14T03:42:23.969Z,29.05
2017-05-14T03:44:52.502Z,31.78
2017-05-14T03:47:21.075Z,27.93
2017-05-14T03:49:49.609Z,28.07
2017-05-14T03:52:18.168Z,29.10
2017-05-14T03:54:46.725Z,30.52
2017-05-14T03:57:15.243Z,30.53
2017-05-14T03:59:43.770Z,29.40
2017-05-14T04:02:12.393Z,26.30
2017-05-14T04:04:41.410Z,27.12
2017-05-14T04:07:09.991Z,26.17
2017-05-14T04:09:38.637Z,26.38
2017-05-14T04:12:08.259Z,24.80
2017-05-14T04:14:38.769Z,26.73
2017-05-14T04:17:08.322Z,27.98
2017-05-14T04:19:36.998Z,27.83
2017-05-14T04:22:05.604Z,25.55
2017-05-14T04:24:38.166Z,26.55
2017-05-14T04:27:11.954Z,26.92
2017-05-14T04:30:01.595Z,27.97
2017-05-14T04:35:24.113Z,27.45
2017-05-14T04:37:55.953Z,27.33
2017-05-14T04:40:29.301Z,28.78
2017-05-14T04:43:01.893Z,28.72
2017-05-14T04:45:31.474Z,29.02
2017-05-14T04:50:45.459Z,26.23
2017-05-14T04:53:18.167Z,25.22
2017-05-14T05:11:04.862Z,25.37
2017-05-14T05:13:34.951Z,23.92
2017-05-14T05:16:15.033Z,26.48
2017-05-14T05:18:43.642Z,26.17
2017-05-14T05:21:27.610Z,25.95
2017-05-14T05:24:00.504Z,24.60
2017-05-14T05:29:09.765Z,25.00
2017-05-14T05:32:10.343Z,23.92
2017-05-14T05:34:47.926Z,24.78
2017-05-14T06:08:27.325Z,26.77
2017-05-14T06:17:21.987Z,24.20
2017-05-14T06:20:09.300Z,22.12
2017-05-14T06:29:06.675Z,20.78
2017-05-14T06:31:53.824Z,18.03
2017-05-14T07:10:01.792Z,9.62
2017-05-14T07:12:32.509Z,10.86
2017-05-14T07:15:28.445Z,10.06
2017-05-14T07:24:47.836Z,8.82
2017-05-14T07:27:16.413Z,9.00
2017-05-14T07:29:44.928Z,9.46
2017-05-14T07:32:13.458Z,9.08
2017-05-14T07:34:42.014Z,8.18
2017-05-14T07:37:10.514Z,8.78
2017-05-14T07:39:39.013Z,8.48
2017-05-14T07:42:07.560Z,8.28
2017-05-14T07:44:36.065Z,9.82
2017-05-14T07:47:04.564Z,8.38
2017-05-14T07:49:33.108Z,8.44
2017-05-14T07:52:01.606Z,8.50
2017-05-14T07:54:30.112Z,7.58
2017-05-14T07:56:58.668Z,8.62
2017-05-14T07:59:27.171Z,7.28
2017-05-14T08:01:55.682Z,7.74
2017-05-14T08:04:24.219Z,8.20
2017-05-14T08:06:52.716Z,7.48
2017-05-14T08:09:21.220Z,8.22
2017-05-14T08:11:49.780Z,7.72
2017-05-14T08:14:18.280Z,7.04
2017-05-14T08:16:46.784Z,7.54
2017-05-14T08:19:15.548Z,8.68
2017-05-14T08:21:44.052Z,6.98
2017-05-14T08:24:12.548Z,7.06
2017-05-14T08:26:41.092Z,6.02
2017-05-14T08:29:09.589Z,5.10
2017-05-14T08:31:38.081Z,5.22
2017-05-14T08:34:08.543Z,5.28
2017-05-14T08:36:37.051Z,5.22
2017-05-14T08:39:05.555Z,6.05
2017-05-14T08:41:34.105Z,4.50
2017-05-14T08:44:02.604Z,5.73
2017-05-14T08:46:31.110Z,5.13
2017-05-14T08:48:59.649Z,5.12
2017-05-14T08:51:28.147Z,6.15
2017-05-14T08:53:56.643Z,5.63
2017-05-14T08:56:25.187Z,6.65
2017-05-14T08:58:53.725Z,6.05
2017-05-14T09:01:22.227Z,5.57
2017-05-14T09:03:50.758Z,6.57
2017-05-14T09:06:19.252Z,6.78
2017-05-14T09:08:47.753Z,6.38
2017-05-14T09:11:16.297Z,6.33
2017-05-14T09:13:44.799Z,6.20
2017-05-14T09:16:14.538Z,4.78
2017-05-14T09:18:43.079Z,6.62
2017-05-14T09:21:11.587Z,6.20
2017-05-14T09:23:40.246Z,5.42
2017-05-14T09:26:08.804Z,5.05
2017-05-14T09:28:37.307Z,6.22
2017-05-14T09:31:05.799Z,5.80
2017-05-14T09:33:34.340Z,6.30
2017-05-14T09:36:02.895Z,5.83
2017-05-14T09:38:31.396Z,4.82
2017-05-14T09:40:59.953Z,4.53
2017-05-14T09:43:28.452Z,5.75
2017-05-14T09:45:56.952Z,5.52
2017-05-14T09:48:25.584Z,4.60
2017-05-14T09:50:54.085Z,4.18
2017-05-14T09:53:22.571Z,4.27
2017-05-14T09:55:51.112Z,6.05
2017-05-14T09:58:19.609Z,5.60
2017-05-14T10:00:48.107Z,6.08
2017-05-14T10:03:16.649Z,5.80
2017-05-14T10:05:45.143Z,6.32
2017-05-14T10:08:13.640Z,6.32
2017-05-14T10:10:43.359Z,7.00
2017-05-14T10:13:11.861Z,5.78
2017-05-14T10:15:40.366Z,5.62
2017-05-14T10:18:08.924Z,5.30
2017-05-14T10:20:37.428Z,6.38
2017-05-14T10:23:05.927Z,5.38
2017-05-14T10:25:34.467Z,5.40
2017-05-14T10:28:02.979Z,5.02
2017-05-14T10:30:31.486Z,5.37
2017-05-14T10:33:00.027Z,6.98
2017-05-14T10:35:28.520Z,5.70
2017-05-14T10:37:57.015Z,4.10
2017-05-14T10:40:25.541Z,5.33
2017-05-14T10:42:54.071Z,4.83
2017-05-14T10:45:22.567Z,5.62
2017-05-14T10:47:51.100Z,5.50
2017-05-14T10:50:19.601Z,4.80
2017-05-14T10:52:48.127Z,5.62
2017-05-14T10:55:16.672Z,4.90
2017-05-14T10:57:46.926Z,5.60
2017-05-14T11:00:15.434Z,5.37
2017-05-14T11:02:43.983Z,7.45
2017-05-14T11:05:12.481Z,4.93
2017-05-14T11:07:41.006Z,6.38
2017-05-14T11:10:09.544Z,5.87
2017-05-14T11:12:38.043Z,6.57
2017-05-14T11:15:06.544Z,5.37
2017-05-14T11:17:35.111Z,6.98
2017-05-14T11:20:03.688Z,7.12
2017-05-14T11:22:32.191Z,6.23
2017-05-14T11:25:00.733Z,5.72
2017-05-14T11:27:29.237Z,5.75
2017-05-14T11:29:57.733Z,5.15
2017-05-14T11:32:26.268Z,5.60
2017-05-14T11:34:54.792Z,4.10
2017-05-14T11:37:23.302Z,4.42
2017-05-14T11:39:51.873Z,4.28
2017-05-14T11:42:20.397Z,3.68
2017-05-14T11:44:48.899Z,4.28
2017-05-14T11:47:17.463Z,4.93
2017-05-14T11:49:45.970Z,5.87
2017-05-14T11:52:14.486Z,4.90
2017-05-14T11:54:43.027Z,4.88
2017-05-14T11:57:11.534Z,5.28
2017-05-14T11:59:40.044Z,3.93
2017-05-14T12:02:09.332Z,4.92
2017-05-14T12:04:37.847Z,4.58
2017-05-14T12:07:06.373Z,4.50
2017-05-14T12:09:34.940Z,4.15
2017-05-14T12:12:03.448Z,4.73
2017-05-14T12:14:32.130Z,4.97
2017-05-14T12:17:00.668Z,4.53
2017-05-14T12:19:29.158Z,5.47
2017-05-14T12:21:57.656Z,4.60
2017-05-14T12:24:26.201Z,4.85
2017-05-14T12:26:54.696Z,5.08
2017-05-14T12:29:23.204Z,4.42
2017-05-14T12:31:51.744Z,4.83
2017-05-14T12:34:20.266Z,4.42
2017-05-14T12:36:48.759Z,5.73
2017-05-14T12:39:17.296Z,5.38
2017-05-14T12:41:45.799Z,5.38
2017-05-14T12:44:14.292Z,4.60
2017-05-14T12:46:42.828Z,4.15
2017-05-14T12:49:11.361Z,4.52
2017-05-14T12:51:39.863Z,5.10
2017-05-14T12:54:08.471Z,5.00
2017-05-14T12:56:37.487Z,6.30
2017-05-14T12:59:06.000Z,4.77
2017-05-14T13:01:34.543Z,4.28
2017-05-14T13:04:03.036Z,4.90
2017-05-14T13:06:31.528Z,4.90
2017-05-14T13:09:00.067Z,5.37
2017-05-14T13:11:28.563Z,5.55
2017-05-14T13:13:57.068Z,5.97
2017-05-14T13:16:25.621Z,5.25
2017-05-14T13:18:54.132Z,6.53
2017-05-14T13:21:22.665Z,5.32
2017-05-14T13:23:51.208Z,6.50
2017-05-14T13:26:19.748Z,4.55
2017-05-14T13:28:48.241Z,5.17
2017-05-14T13:31:16.791Z,5.52
2017-05-14T13:33:45.297Z,4.85
2017-05-14T13:36:13.796Z,5.63
2017-05-14T13:38:42.327Z,6.03
2017-05-14T13:41:10.833Z,5.10
2017-05-14T13:43:39.336Z,4.75
2017-05-14T13:46:07.889Z,5.70
2017-05-14T13:48:36.393Z,5.73
2017-05-14T13:51:04.888Z,6.00
2017-05-14T13:53:33.441Z,5.68
2017-05-14T13:56:01.931Z,5.22
2017-05-14T13:58:30.436Z,5.65
2017-05-14T14:00:58.980Z,4.65
2017-05-14T14:03:27.472Z,5.98
2017-05-14T14:05:55.975Z,5.13
2017-05-14T14:08:24.512Z,5.38
2017-05-14T14:10:53.003Z,5.60
2017-05-14T14:13:21.504Z,5.33
2017-05-14T14:15:50.048Z,5.28
2017-05-14T14:18:18.554Z,6.68
2017-05-14T14:20:47.067Z,4.87
2017-05-14T14:23:15.608Z,5.12
2017-05-14T14:25:44.138Z,5.27
2017-05-14T14:28:12.653Z,4.82
2017-05-14T14:30:41.204Z,4.17
2017-05-14T14:33:09.711Z,4.20
2017-05-14T14:35:38.225Z,4.50
2017-05-14T14:38:06.762Z,5.10
2017-05-14T14:40:35.273Z,4.98
2017-05-14T14:43:03.782Z,4.92
2017-05-14T14:45:32.340Z,5.35
2017-05-14T14:48:00.840Z,4.82
2017-05-14T14:50:29.349Z,5.00
2017-05-14T14:52:57.891Z,5.45
2017-05-14T14:55:26.413Z,12.45
2017-05-14T14:57:54.913Z,4.93
2017-05-14T15:00:23.511Z,4.93
2017-05-14T15:02:52.019Z,5.25
2017-05-14T15:05:20.537Z,4.87
2017-05-14T15:07:49.104Z,5.28
2017-05-14T15:10:17.604Z,5.07
2017-05-14T15:12:46.116Z,4.75
2017-05-14T15:15:14.666Z,5.82
2017-05-14T15:17:43.175Z,4.97
2017-05-14T15:20:11.684Z,4.85
2017-05-14T15:22:40.220Z,5.57
2017-05-14T15:25:08.787Z,4.67
2017-05-14T15:27:37.304Z,5.37
2017-05-14T15:30:05.829Z,4.90
2017-05-14T15:32:34.376Z,5.30
2017-05-14T15:35:02.880Z,5.28
2017-05-14T15:37:31.420Z,4.28
2017-05-14T15:39:59.923Z,5.32
2017-05-14T15:42:28.433Z,4.78
2017-05-14T15:44:57.002Z,5.03
2017-05-14T15:47:25.511Z,5.18
2017-05-14T15:49:54.034Z,4.80
2017-05-14T15:52:22.569Z,4.03
2017-05-14T15:54:51.078Z,4.68
2017-05-14T15:57:19.621Z,5.73
2017-05-14T15:59:48.135Z,5.68
2017-05-14T16:02:16.639Z,5.90
2017-05-14T16:04:45.200Z,6.98
2017-05-14T16:07:13.720Z,8.75
2017-05-14T16:09:42.233Z,8.70
2017-05-14T16:12:10.782Z,8.42
2017-05-14T16:14:39.303Z,6.98
2017-05-14T16:17:07.824Z,7.12
2017-05-14T16:19:36.386Z,6.72
2017-05-14T16:22:04.889Z,6.28
2017-05-14T16:24:33.409Z,7.53
2017-05-14T16:27:01.953Z,6.77
2017-05-14T16:29:30.466Z,7.35
2017-05-14T16:31:59.012Z,7.42
2017-05-14T16:34:27.577Z,7.27
2017-05-14T16:36:56.082Z,6.95
2017-05-14T16:39:24.580Z,7.38
2017-05-14T16:41:53.113Z,6.97
2017-05-14T16:44:21.633Z,5.75
2017-05-14T16:46:50.189Z,6.13
2017-05-14T16:49:18.705Z,6.27
2017-05-14T16:51:47.238Z,8.05
2017-05-14T16:54:15.793Z,8.27
2017-05-14T16:56:44.317Z,8.30
2017-05-14T16:59:12.832Z,7.15
2017-05-14T17:01:41.438Z,7.08
2017-05-14T17:04:09.942Z,7.72
2017-05-14T17:06:38.444Z,6.88
2017-05-14T17:09:06.976Z,6.95
2017-05-14T17:11:35.478Z,7.82
2017-05-14T17:14:04.000Z,6.93
2017-05-14T17:16:32.593Z,7.70
2017-05-14T17:19:01.143Z,7.48
2017-05-14T17:21:29.641Z,6.12
2017-05-14T17:23:58.195Z,6.92
2017-05-14T17:26:26.767Z,8.48
2017-05-14T17:28:55.268Z,8.35
2017-05-14T17:31:23.773Z,7.15
2017-05-14T17:33:52.270Z,9.00
2017-05-14T17:36:20.808Z,6.92
2017-05-14T17:38:49.304Z,6.42
2017-05-14T17:41:17.830Z,9.00
2017-05-14T17:43:46.408Z,9.38
2017-05-14T17:46:14.907Z,8.42
2017-05-14T17:48:43.439Z,10.97
2017-05-14T17:51:11.949Z,11.88
2017-05-14T17:53:40.486Z,13.68
2017-05-14T17:56:08.991Z,14.15
2017-05-14T17:58:37.492Z,15.12
2017-05-14T18:01:06.036Z,14.92
2017-05-14T18:03:34.544Z,14.08
2017-05-14T18:06:03.104Z,13.87
2017-05-14T18:08:31.613Z,14.27
2017-05-14T18:11:00.111Z,13.48
2017-05-14T18:13:28.648Z,14.68
2017-05-14T18:15:57.189Z,14.15
2017-05-14T18:18:25.728Z,14.70
2017-05-14T18:20:54.283Z,11.63
2017-05-14T18:23:22.793Z,12.22
2017-05-14T18:25:51.315Z,11.37
2017-05-14T18:28:19.844Z,12.43
2017-05-14T18:30:48.396Z,11.82
2017-05-14T18:33:16.949Z,12.20
2017-05-14T18:35:45.472Z,10.63
2017-05-14T18:38:13.975Z,12.27
2017-05-14T18:40:42.520Z,13.48
2017-05-14T18:43:11.032Z,11.00
2017-05-14T18:45:39.536Z,12.38
2017-05-14T18:48:08.087Z,13.57
2017-05-14T18:50:36.592Z,13.33
2017-05-14T18:53:05.102Z,13.12
2017-05-14T18:55:33.646Z,12.15
2017-05-14T18:58:02.158Z,14.07
2017-05-14T19:00:30.702Z,12.55
2017-05-14T19:02:59.207Z,13.85
2017-05-14T19:05:27.759Z,14.22
2017-05-14T19:07:56.315Z,11.95
2017-05-14T19:10:24.851Z,13.80
2017-05-14T19:12:53.358Z,13.78
2017-05-14T19:15:21.932Z,12.87
2017-05-14T19:17:50.432Z,13.47
2017-05-14T19:20:18.937Z,12.53
2017-05-14T19:22:47.482Z,13.77
2017-05-14T19:25:16.000Z,13.88
2017-05-14T19:27:44.520Z,12.47
2017-05-14T19:30:13.378Z,17.87
2017-05-14T19:32:41.928Z,16.55
2017-05-14T19:35:10.464Z,20.28
2017-05-14T19:37:39.046Z,19.60
2017-05-14T19:40:07.552Z,20.63
2017-05-14T19:42:36.120Z,19.55
2017-05-14T19:45:04.658Z,19.50
2017-05-14T19:47:33.169Z,19.13
2017-05-14T19:50:01.723Z,18.65
2017-05-14T19:52:30.241Z,20.08
2017-05-14T19:54:58.841Z,17.40
2017-05-14T19:57:27.396Z,18.08
2017-05-14T19:59:55.923Z,17.20
2017-05-14T20:02:24.477Z,17.37
2017-05-14T20:04:53.093Z,16.27
2017-05-14T20:07:21.624Z,17.78
2017-05-14T20:09:50.133Z,16.50
2017-05-14T20:12:18.675Z,17.67
2017-05-14T20:14:47.216Z,17.68
2017-05-14T20:17:15.722Z,17.38
2017-05-14T20:19:44.274Z,18.55
2017-05-14T20:22:12.773Z,17.97
2017-05-14T20:24:41.288Z,17.77
2017-05-14T20:27:09.838Z,18.38
2017-05-14T20:29:38.360Z,18.80
2017-05-14T20:32:06.882Z,18.92
2017-05-14T20:34:35.450Z,18.48
2017-05-14T20:37:03.991Z,18.82
2017-05-14T20:39:32.511Z,17.78
2017-05-14T20:42:01.130Z,18.50
2017-05-14T20:44:29.666Z,19.05
2017-05-14T20:46:58.231Z,20.55
2017-05-14T20:49:26.731Z,20.48
2017-05-14T20:51:55.985Z,19.87
2017-05-14T20:54:24.532Z,20.05
2017-05-14T20:56:53.116Z,21.92
2017-05-14T20:59:21.653Z,21.42
2017-05-14T21:01:50.308Z,19.83
2017-05-14T21:04:18.844Z,21.88
2017-05-14T21:06:48.247Z,22.32
2017-05-14T21:09:16.801Z,24.55
2017-05-14T21:11:45.320Z,22.77
2017-05-14T21:14:13.868Z,21.50
2017-05-14T21:16:42.407Z,23.10
2017-05-14T21:19:10.964Z,22.58
2017-05-14T21:21:39.467Z,24.43
2017-05-14T21:24:07.983Z,22.43
2017-05-14T21:26:36.514Z,25.45
2017-05-14T21:29:05.028Z,24.42
2017-05-14T21:31:33.590Z,25.07
2017-05-14T21:34:02.128Z,23.92
2017-05-14T21:36:30.696Z,24.75
2017-05-14T21:38:59.243Z,25.48
2017-05-14T21:41:27.765Z,25.17
2017-05-14T21:43:56.269Z,24.17
2017-05-14T21:46:24.847Z,26.50
2017-05-14T21:48:53.414Z,25.92
2017-05-14T21:51:21.929Z,24.50
2017-05-14T21:53:51.512Z,25.65
2017-05-14T21:56:20.018Z,23.13
2017-05-14T21:58:49.467Z,22.27
2017-05-14T22:01:18.017Z,25.75
2017-05-14T22:03:46.533Z,24.47
2017-05-14T22:06:15.084Z,27.25
2017-05-14T22:08:43.603Z,25.88
2017-05-14T22:11:12.119Z,28.23
2017-05-14T22:13:40.698Z,29.38
2017-05-14T22:16:09.242Z,28.47
2017-05-14T22:18:37.769Z,30.22
2017-05-14T22:21:06.323Z,29.67
2017-05-14T22:23:34.832Z,29.33
2017-05-14T22:26:03.379Z,29.12
2017-05-14T22:28:31.936Z,28.67
2017-05-14T22:31:00.452Z,31.10
2017-05-14T22:33:28.999Z,29.87
2017-05-14T22:35:57.521Z,33.95
2017-05-14T22:38:26.072Z,30.15
2017-05-14T22:40:54.583Z,32.13
2017-05-14T22:43:23.099Z,31.32
2017-05-14T22:45:51.656Z,32.40
2017-05-14T22:48:20.174Z,32.08
2017-05-14T22:50:48.712Z,30.43
2017-05-14T22:53:17.268Z,32.62
2017-05-14T22:55:45.858Z,31.23
2017-05-14T22:58:14.372Z,29.47
2017-05-14T23:00:42.929Z,31.58
2017-05-14T23:03:11.496Z,30.85
2017-05-14T23:05:40.054Z,36.23
2017-05-14T23:08:08.569Z,32.20
2017-05-14T23:10:37.116Z,30.88
2017-05-14T23:13:05.662Z,29.87
2017-05-14T23:15:34.184Z,30.07
2017-05-14T23:18:02.957Z,31.47
2017-05-14T23:20:31.490Z,28.10
2017-05-14T23:23:00.011Z,31.73
2017-05-14T23:25:28.591Z,29.18
2017-05-14T23:27:57.117Z,31.05
2017-05-14T23:30:25.633Z,29.28
2017-05-14T23:32:54.178Z,28.40
2017-05-14T23:35:22.702Z,27.03
2017-05-14T23:37:51.253Z,29.08
2017-05-14T23:40:19.774Z,28.82
2017-05-14T23:42:48.299Z,31.10
2017-05-14T23:45:16.860Z,30.93
2017-05-14T23:47:45.396Z,29.80
2017-05-14T23:50:13.959Z,29.48
2017-05-14T23:52:42.478Z,29.58
2017-05-14T23:55:11.003Z,29.93
2017-05-14T23:57:39.588Z,32.75
